ADDS METAR Data INFO
IDs: Format: Raw Decoded Include TAF

Data at: 0740 UTC 23 Jul 2018

KLWS 230656Z AUTO 19003KT 10SM CLR 21/03 A3012 RMK AO2 SLP191 T02110033
KLWS 230556Z AUTO 19006KT 10SM CLR 23/03 A3012 RMK AO2 SLP188 T02330033 10328 20228 53006
KLWS 230456Z 16006KT 10SM CLR 24/03 A3011 RMK AO2 SLP187 T02390033
KLWS 230356Z 04004KT 10SM CLR 28/03 A3010 RMK AO2 SLP184 T02780033
KLWS 230256Z 36006KT 10SM CLR 30/04 A3010 RMK AO2 SLP183 T03000039 55006
KLWS 230156Z 03005KT 10SM CLR 32/03 A3010 RMK AO2 SLP183 T03170028
KLWS 230056Z 00000KT 10SM CLR 32/01 A3010 RMK AO2 SLP184 T03220006
KLWS 222356Z 06006KT 10SM CLR 32/00 A3012 RMK AO2 SLP190 T03220000 10328 20250 58015
KLWS 222256Z 00000KT 10SM CLR 32/M04 A3013 RMK AO2 SLP195 T03221044
KLWS 222156Z 08006KT 10SM CLR 32/00 A3015 RMK AO2 SLP201 T03170000
KLWS 222056Z 11005KT 10SM CLR 31/01 A3016 RMK AO2 SLP206 T03110006 58014
KLWS 221956Z 27004KT 10SM CLR 30/02 A3018 RMK AO2 SLP210 T03000017
KLWS 221856Z 31005KT 10SM CLR 28/04 A3020 RMK AO2 SLP217 T02780039
KLWS 221756Z VRB03KT 10SM CLR 25/04 A3021 RMK AO2 SLP221 T02500044 10256 20128 57003
KLWS 221656Z 36005KT 10SM CLR 22/04 A3021 RMK AO2 SLP223 T02220044
KLWS 221556Z VRB04KT 10SM CLR 19/06 A3021 RMK AO2 SLP224 T01940056
KLWS 221456Z VRB03KT 10SM CLR 17/05 A3022 RMK AO2 SLP225 T01720050 51014
KLWS 221356Z 08005KT 10SM CLR 16/04 A3021 RMK AO2 SLP223 T01610044
KLWS 221256Z AUTO 00000KT 10SM CLR 14/02 A3020 RMK AO2 SLP217 T01390022
KLWS 221156Z AUTO 18003KT 10SM CLR 14/01 A3018 RMK AO2 SLP211 T01390011 10217 20133 52012
KLWS 221056Z AUTO 00000KT 10SM CLR 14/02 A3016 RMK AO2 SLP207 T01440022
KLWS 220956Z AUTO 15003KT 10SM CLR 15/01 A3015 RMK AO2 SLP202 T01500006
KLWS 220856Z AUTO 15004KT 10SM CLR 17/01 A3014 RMK AO2 SLP197 T01670006 51010
KLWS 220756Z AUTO 23004KT 10SM CLR 19/01 A3013 RMK AO2 SLP195 T01940006 403000111
KLWS 220656Z AUTO 24003KT 10SM CLR 20/M01 A3012 RMK AO2 SLP191 T02001006
KLWS 220556Z AUTO 22005KT 10SM CLR 22/M01 A3011 RMK AO2 SLP187 T02171006 10300 20211 51023
KLWS 220456Z 27004KT 10SM CLR 23/M01 A3009 RMK AO2 SLP182 T02281006
KLWS 220356Z 32004KT 10SM CLR 24/01 A3007 RMK AO2 SLP173 T02440006
KLWS 220256Z 32007KT 10SM CLR 26/01 A3004 RMK AO2 SLP163 T02610006 53012
KLWS 220156Z 31012KT 10SM CLR 28/01 A3002 RMK AO2 SLP156 T02830011
KLWS 220056Z 36008KT 10SM CLR 29/01 A3001 RMK AO2 SLP153 T02940011
KLWS 212356Z 32010KT 10SM CLR 29/01 A3000 RMK AO2 SLP152 T02940011 10300 20239 57001
KLWS 212256Z 32008G17KT 10SM CLR 30/02 A3000 RMK AO2 SLP151 T03000022
KLWS 212156Z 00000KT 10SM CLR 29/02 A3001 RMK AO2 SLP152 T02890017
KLWS 212056Z 30009G20KT 10SM CLR 29/02 A3001 RMK AO2 SLP152 T02940022 56009
KLWS 211956Z 35008KT 310V010 10SM CLR 28/02 A3001 RMK AO2 SLP154 T02830022